Time;durP1;ratioP1;P1;durP2;ratioP2;P2;SDS_P1;SDS_P2;PMS_P1;PMS_P2;Temp;Humidity;BMP_temperature;BMP_pressure;BME280_temperature;BME280_humidity;BME280_pressure;Samples;Min_cycle;Max_cycle;Signal;HPM_P1;HPM_P2
2022/05/05 00:00:56;;;;;;;31.90;24.07;;;;;;;;;;4959142;28;20516;-44
2022/05/05 00:03:22;;;;;;;28.43;21.00;;;;;;;;;;4963620;28;20595;-44
2022/05/05 00:05:48;;;;;;;32.67;25.30;;;;;;;;;;4961984;28;20333;-44
2022/05/05 00:08:14;;;;;;;29.57;23.67;;;;;;;;;;4960280;28;20283;-44
2022/05/05 00:16:10;;;;;;;37.63;27.73;;;;;;;;;;4954442;28;20272;-45
2022/05/05 00:18:37;;;;;;;43.10;29.80;;;;;;;;;;4957109;28;20209;-44
2022/05/05 00:21:03;;;;;;;42.30;31.53;;;;;;;;;;4957876;28;20178;-43
2022/05/05 00:23:29;;;;;;;42.27;31.37;;;;;;;;;;4963610;28;20224;-44
2022/05/05 00:25:55;;;;;;;42.30;32.00;;;;;;;;;;4962953;28;20233;-44
2022/05/05 00:28:21;;;;;;;50.00;36.90;;;;;;;;;;4965372;28;20614;-42
2022/05/05 00:30:48;;;;;;;49.90;36.47;;;;;;;;;;4964430;28;20486;-43
2022/05/05 00:33:14;;;;;;;51.80;36.57;;;;;;;;;;4961654;28;20680;-43
2022/05/05 00:35:40;;;;;;;56.57;40.00;;;;;;;;;;4963756;28;20177;-43
2022/05/05 00:38:06;;;;;;;56.27;40.33;;;;;;;;;;4963184;28;20194;-43
2022/05/05 00:40:32;;;;;;;54.33;39.27;;;;;;;;;;4966550;28;20558;-43
2022/05/05 00:42:59;;;;;;;57.27;41.70;;;;;;;;;;4962961;28;20741;-43
2022/05/05 00:45:25;;;;;;;59.93;41.40;;;;;;;;;;4965180;28;20189;-43
2022/05/05 00:47:51;;;;;;;63.10;44.63;;;;;;;;;;4966411;28;20209;-43
2022/05/05 00:50:20;;;;;;;62.43;45.50;;;;;;;;;;4965697;28;20307;-43
2022/05/05 00:52:46;;;;;;;73.87;51.37;;;;;;;;;;4963420;28;20190;-43
2022/05/05 00:55:12;;;;;;;76.47;51.57;;;;;;;;;;4966139;28;20173;-43
2022/05/05 00:57:39;;;;;;;83.63;55.10;;;;;;;;;;4966545;28;20349;-43
2022/05/05 01:00:05;;;;;;;72.60;51.17;;;;;;;;;;4969225;28;20177;-44
2022/05/05 01:02:34;;;;;;;76.17;55.40;;;;;;;;;;4962899;28;20178;-43
2022/05/05 01:05:00;;;;;;;79.17;54.10;;;;;;;;;;4962706;28;20277;-43
2022/05/05 01:07:27;;;;;;;91.03;61.80;;;;;;;;;;4964419;28;20173;-43
2022/05/05 01:09:54;;;;;;;85.40;59.67;;;;;;;;;;4963295;28;20181;-43
2022/05/05 01:12:22;;;;;;;86.37;59.97;;;;;;;;;;4962607;28;20240;-43
2022/05/05 01:14:48;;;;;;;80.30;56.53;;;;;;;;;;4962288;28;20808;-43
2022/05/05 01:17:14;;;;;;;86.77;59.43;;;;;;;;;;4964432;28;20181;-43
2022/05/05 01:19:40;;;;;;;89.53;61.87;;;;;;;;;;4965878;28;20324;-43
2022/05/05 01:22:06;;;;;;;92.53;63.10;;;;;;;;;;4960048;28;20180;-43
2022/05/05 01:30:03;;;;;;;72.00;49.53;;;;;;;;;;4966837;28;20212;-44
2022/05/05 01:32:33;;;;;;;72.03;50.30;;;;;;;;;;4959179;28;20794;-43
2022/05/05 01:34:59;;;;;;;62.53;44.07;;;;;;;;;;4959489;28;20622;-43
2022/05/05 01:37:25;;;;;;;65.07;45.50;;;;;;;;;;4959702;28;20288;-43
2022/05/05 01:39:51;;;;;;;63.30;45.83;;;;;;;;;;4959013;28;20607;-43
2022/05/05 01:42:17;;;;;;;69.23;44.57;;;;;;;;;;4959114;28;20192;-43
2022/05/05 01:44:44;;;;;;;56.40;42.27;;;;;;;;;;4959294;28;20233;-45
2022/05/05 01:47:10;;;;;;;62.57;44.27;;;;;;;;;;4964005;28;20181;-42
2022/05/05 01:49:36;;;;;;;56.17;41.00;;;;;;;;;;4964057;28;20525;-43
2022/05/05 01:52:02;;;;;;;54.13;40.17;;;;;;;;;;4960990;28;20281;-42
2022/05/05 01:54:29;;;;;;;58.30;38.43;;;;;;;;;;4963092;28;20655;-43
2022/05/05 01:56:55;;;;;;;44.50;32.33;;;;;;;;;;4960121;28;20189;-43
2022/05/05 01:59:21;;;;;;;42.27;31.43;;;;;;;;;;4960870;28;20412;-43
2022/05/05 02:01:47;;;;;;;41.10;30.30;;;;;;;;;;4962225;28;20173;-43
2022/05/05 02:04:13;;;;;;;45.23;34.27;;;;;;;;;;4964057;28;20177;-43
2022/05/05 02:06:39;;;;;;;52.70;37.03;;;;;;;;;;4960033;28;20192;-43
2022/05/05 02:09:06;;;;;;;55.77;38.87;;;;;;;;;;4956700;28;20398;-43
2022/05/05 02:11:32;;;;;;;61.83;43.07;;;;;;;;;;4960174;28;20304;-45
2022/05/05 02:13:58;;;;;;;58.03;41.70;;;;;;;;;;4964875;28;20367;-43
2022/05/05 02:16:24;;;;;;;59.13;41.67;;;;;;;;;;4961327;28;20193;-43
2022/05/05 02:18:50;;;;;;;51.77;38.00;;;;;;;;;;4960759;28;20984;-43
2022/05/05 02:21:16;;;;;;;50.80;36.13;;;;;;;;;;4962009;28;20173;-43
2022/05/05 02:23:42;;;;;;;51.87;38.33;;;;;;;;;;4965810;28;20936;-43
2022/05/05 02:26:09;;;;;;;50.00;37.83;;;;;;;;;;4957037;28;20189;-42
2022/05/05 02:28:35;;;;;;;58.33;42.10;;;;;;;;;;4957251;28;20181;-43
2022/05/05 02:31:01;;;;;;;68.43;47.47;;;;;;;;;;4960805;28;20701;-43
2022/05/05 02:33:27;;;;;;;67.23;48.83;;;;;;;;;;4964513;28;20201;-43
2022/05/05 02:38:43;;;;;;;85.37;54.47;;;;;;;;;;4956924;28;20525;-43
2022/05/05 02:41:10;;;;;;;85.83;58.07;;;;;;;;;;4959876;28;20407;-43
2022/05/05 02:43:37;;;;;;;77.07;53.80;;;;;;;;;;4962706;28;20574;-43
2022/05/05 02:46:03;;;;;;;75.40;51.97;;;;;;;;;;4959401;28;20252;-44
2022/05/05 02:48:29;;;;;;;67.03;46.60;;;;;;;;;;4964325;28;20452;-43
2022/05/05 02:50:55;;;;;;;59.07;41.73;;;;;;;;;;4967317;28;20292;-43
2022/05/05 02:56:06;;;;;;;59.23;42.40;;;;;;;;;;4959512;28;20295;-43
2022/05/05 02:58:32;;;;;;;61.33;41.37;;;;;;;;;;4964310;28;20860;-44
2022/05/05 03:00:59;;;;;;;56.77;39.60;;;;;;;;;;4961391;28;20656;-44
2022/05/05 03:03:25;;;;;;;60.23;40.10;;;;;;;;;;4961721;28;20186;-44
2022/05/05 03:05:51;;;;;;;59.53;40.13;;;;;;;;;;4965366;28;20189;-43
2022/05/05 03:08:17;;;;;;;64.00;40.70;;;;;;;;;;4962167;28;20756;-44
2022/05/05 03:10:43;;;;;;;59.83;42.83;;;;;;;;;;4962843;28;20181;-44
2022/05/05 03:13:09;;;;;;;55.70;39.47;;;;;;;;;;4960240;28;20531;-44
2022/05/05 03:15:35;;;;;;;52.37;37.30;;;;;;;;;;4961771;28;20193;-44
2022/05/05 03:18:01;;;;;;;57.97;39.23;;;;;;;;;;4959496;28;20628;-44
2022/05/05 03:20:28;;;;;;;54.10;38.53;;;;;;;;;;4959587;28;20173;-45
2022/05/05 03:22:54;;;;;;;51.33;37.67;;;;;;;;;;4961058;28;20595;-45
2022/05/05 03:25:20;;;;;;;57.83;38.20;;;;;;;;;;4959369;28;20483;-44
2022/05/05 03:27:46;;;;;;;49.00;36.37;;;;;;;;;;4963161;28;20406;-45
2022/05/05 03:30:12;;;;;;;49.67;36.07;;;;;;;;;;4961578;28;20190;-45
2022/05/05 03:32:38;;;;;;;47.80;34.90;;;;;;;;;;4962019;28;20182;-45
2022/05/05 03:35:04;;;;;;;51.83;37.10;;;;;;;;;;4962795;28;20185;-45
2022/05/05 03:37:31;;;;;;;54.30;37.47;;;;;;;;;;4958968;28;20197;-45
2022/05/05 03:39:57;;;;;;;47.80;33.97;;;;;;;;;;4961885;28;20177;-45
2022/05/05 03:42:23;;;;;;;42.20;31.23;;;;;;;;;;4959408;28;20327;-45
2022/05/05 03:44:50;;;;;;;50.63;35.13;;;;;;;;;;4960973;28;20201;-45
2022/05/05 03:47:16;;;;;;;47.93;34.43;;;;;;;;;;4960197;28;20709;-44
2022/05/05 03:49:42;;;;;;;47.93;32.53;;;;;;;;;;4959113;28;20185;-45
2022/05/05 03:52:08;;;;;;;46.47;31.07;;;;;;;;;;4958567;28;20918;-45
2022/05/05 03:54:34;;;;;;;50.23;31.33;;;;;;;;;;4961847;28;20509;-45
2022/05/05 03:57:00;;;;;;;41.27;28.60;;;;;;;;;;4960583;28;20279;-44
2022/05/05 03:59:26;;;;;;;42.37;30.90;;;;;;;;;;4962389;28;20177;-44
2022/05/05 04:01:53;;;;;;;46.33;31.20;;;;;;;;;;4961368;28;20417;-45
2022/05/05 04:04:19;;;;;;;44.07;29.77;;;;;;;;;;4967778;28;20779;-45
2022/05/05 04:06:46;;;;;;;42.70;31.03;;;;;;;;;;4965639;28;20671;-45
2022/05/05 04:09:12;;;;;;;40.70;28.63;;;;;;;;;;4964876;28;20173;-43
2022/05/05 04:11:38;;;;;;;40.97;29.70;;;;;;;;;;4965911;28;20656;-43
2022/05/05 04:14:04;;;;;;;44.47;29.10;;;;;;;;;;4966268;28;20662;-43
2022/05/05 04:16:31;;;;;;;50.30;33.97;;;;;;;;;;4965599;28;20181;-46
2022/05/05 04:19:03;;;;;;;46.37;33.53;;;;;;;;;;4964834;28;20719;-43
2022/05/05 04:21:29;;;;;;;51.37;33.10;;;;;;;;;;4966545;28;20163;-44
2022/05/05 04:23:55;;;;;;;46.73;31.57;;;;;;;;;;4966423;28;20216;-43
2022/05/05 04:26:21;;;;;;;45.97;33.60;;;;;;;;;;4965059;28;20177;-43
2022/05/05 04:28:49;;;;;;;49.43;33.57;;;;;;;;;;4964750;28;20985;-43
2022/05/05 04:31:15;;;;;;;41.97;30.97;;;;;;;;;;4962609;28;20185;-43
2022/05/05 04:33:42;;;;;;;45.17;31.53;;;;;;;;;;4962412;28;20817;-43
2022/05/05 04:36:08;;;;;;;45.17;31.70;;;;;;;;;;4965510;28;20688;-44
2022/05/05 04:38:34;;;;;;;40.33;30.80;;;;;;;;;;4962007;28;20307;-44
2022/05/05 04:41:01;;;;;;;42.33;30.07;;;;;;;;;;4962921;28;20172;-44
2022/05/05 04:43:27;;;;;;;40.97;30.10;;;;;;;;;;4964122;28;20894;-44
2022/05/05 04:45:53;;;;;;;37.30;28.63;;;;;;;;;;4962313;28;20323;-44
2022/05/05 04:48:19;;;;;;;44.30;31.83;;;;;;;;;;4962446;28;20972;-45
2022/05/05 04:50:45;;;;;;;40.13;29.80;;;;;;;;;;4962965;28;20553;-44
2022/05/05 04:53:11;;;;;;;47.77;31.10;;;;;;;;;;4964947;28;20220;-44
2022/05/05 04:55:37;;;;;;;38.93;28.73;;;;;;;;;;4964855;28;20177;-44
2022/05/05 04:58:03;;;;;;;37.90;28.50;;;;;;;;;;4958108;28;20283;-44
2022/05/05 05:00:30;;;;;;;39.90;29.07;;;;;;;;;;4963116;28;20173;-43
2022/05/05 05:02:56;;;;;;;44.87;30.00;;;;;;;;;;4965851;28;20463;-45
2022/05/05 05:05:22;;;;;;;42.47;29.63;;;;;;;;;;4962899;28;20177;-44
2022/05/05 05:07:48;;;;;;;39.57;28.10;;;;;;;;;;4959015;28;20578;-44
2022/05/05 05:10:14;;;;;;;37.43;27.03;;;;;;;;;;4962986;28;20194;-44
2022/05/05 05:12:41;;;;;;;36.67;25.53;;;;;;;;;;4962591;28;20169;-48
2022/05/05 05:15:07;;;;;;;39.43;26.77;;;;;;;;;;4960591;28;20408;-45
2022/05/05 05:17:33;;;;;;;38.87;25.93;;;;;;;;;;4963164;28;20181;-45
2022/05/05 05:20:00;;;;;;;32.67;25.17;;;;;;;;;;4962305;28;20419;-44
2022/05/05 05:22:26;;;;;;;36.90;27.13;;;;;;;;;;4956282;28;20732;-44
2022/05/05 05:24:52;;;;;;;34.97;26.20;;;;;;;;;;4959636;28;20228;-44
2022/05/05 05:27:18;;;;;;;38.17;26.90;;;;;;;;;;4961757;28;20245;-44
2022/05/05 05:29:44;;;;;;;34.03;24.60;;;;;;;;;;4962994;28;20620;-45
2022/05/05 05:32:10;;;;;;;31.30;23.07;;;;;;;;;;4965627;28;20173;-45
2022/05/05 05:34:36;;;;;;;31.40;23.00;;;;;;;;;;4962246;28;20202;-44
2022/05/05 05:37:03;;;;;;;32.70;23.37;;;;;;;;;;4958476;28;20308;-43
2022/05/05 05:39:30;;;;;;;31.63;22.47;;;;;;;;;;4963877;28;20756;-45
2022/05/05 05:41:56;;;;;;;33.47;22.97;;;;;;;;;;4963875;28;20189;-45
2022/05/05 05:44:22;;;;;;;29.73;21.47;;;;;;;;;;4963613;28;20177;-45
2022/05/05 05:46:48;;;;;;;29.63;21.77;;;;;;;;;;4963469;28;20934;-44
2022/05/05 05:49:14;;;;;;;28.10;19.83;;;;;;;;;;4964617;28;20189;-45
2022/05/05 05:51:41;;;;;;;26.43;19.93;;;;;;;;;;4966007;28;20772;-46
2022/05/05 05:54:08;;;;;;;25.60;19.13;;;;;;;;;;4964323;28;20229;-46
2022/05/05 05:56:34;;;;;;;24.60;17.80;;;;;;;;;;4963864;28;20174;-46
2022/05/05 05:59:01;;;;;;;25.73;17.83;;;;;;;;;;4962928;28;20702;-46
2022/05/05 06:04:12;;;;;;;25.30;18.23;;;;;;;;;;4964798;28;20209;-46
2022/05/05 06:06:41;;;;;;;24.17;17.87;;;;;;;;;;4966604;28;20423;-44
2022/05/05 06:09:07;;;;;;;29.77;20.33;;;;;;;;;;4961444;28;20185;-44
2022/05/05 06:11:35;;;;;;;32.40;20.80;;;;;;;;;;4963560;28;20173;-44
2022/05/05 06:14:04;;;;;;;27.03;20.30;;;;;;;;;;4962115;28;20239;-44
2022/05/05 06:16:30;;;;;;;26.50;19.80;;;;;;;;;;4965508;28;20583;-45
2022/05/05 06:18:56;;;;;;;31.17;23.50;;;;;;;;;;4961788;28;20174;-44
2022/05/05 06:21:22;;;;;;;32.50;24.57;;;;;;;;;;4965060;28;20577;-44
2022/05/05 06:23:48;;;;;;;34.50;24.67;;;;;;;;;;4964317;28;20205;-44
2022/05/05 06:26:14;;;;;;;32.13;23.67;;;;;;;;;;4962515;28;20632;-44
2022/05/05 06:28:43;;;;;;;31.17;22.53;;;;;;;;;;4960722;28;20386;-44
2022/05/05 06:31:09;;;;;;;32.40;22.43;;;;;;;;;;4963198;28;20178;-43
2022/05/05 06:33:35;;;;;;;35.53;21.83;;;;;;;;;;4959849;28;20924;-44
2022/05/05 06:36:01;;;;;;;35.13;25.73;;;;;;;;;;4959254;28;20248;-44
2022/05/05 06:38:27;;;;;;;38.63;24.43;;;;;;;;;;4960209;28;20413;-44
2022/05/05 06:40:53;;;;;;;31.47;23.77;;;;;;;;;;4963834;28;20217;-44
2022/05/05 06:43:19;;;;;;;30.80;22.33;;;;;;;;;;4964201;28;20412;-44
2022/05/05 06:45:46;;;;;;;35.33;24.17;;;;;;;;;;4957344;28;20184;-44
2022/05/05 06:48:13;;;;;;;32.23;21.63;;;;;;;;;;4961728;28;20916;-44
2022/05/05 06:50:39;;;;;;;32.80;22.07;;;;;;;;;;4968405;28;20182;-44
2022/05/05 06:53:05;;;;;;;24.10;18.80;;;;;;;;;;4964133;28;20938;-44
2022/05/05 06:55:31;;;;;;;27.70;20.87;;;;;;;;;;4960765;28;21203;-44
2022/05/05 06:57:57;;;;;;;29.93;21.20;;;;;;;;;;4965712;28;20562;-44
2022/05/05 07:00:23;;;;;;;26.80;19.37;;;;;;;;;;4965772;28;20188;-44
2022/05/05 07:02:49;;;;;;;31.90;20.40;;;;;;;;;;4960334;28;20176;-45
2022/05/05 07:05:26;;;;;;;25.20;19.30;;;;;;;;;;4959033;28;20174;-45
2022/05/05 07:07:52;;;;;;;26.33;18.50;;;;;;;;;;4963607;28;20193;-44
2022/05/05 07:13:04;;;;;;;24.83;16.93;;;;;;;;;;4957786;28;20212;-44
2022/05/05 07:15:30;;;;;;;21.73;16.27;;;;;;;;;;4962988;28;20231;-45
2022/05/05 07:17:56;;;;;;;21.97;16.63;;;;;;;;;;4962816;28;20732;-45
2022/05/05 07:20:23;;;;;;;26.37;16.83;;;;;;;;;;4962855;28;20240;-45
2022/05/05 07:22:51;;;;;;;19.33;14.20;;;;;;;;;;4955295;28;20298;-44
2022/05/05 07:25:18;;;;;;;19.63;14.37;;;;;;;;;;4966726;28;20292;-45
2022/05/05 07:27:44;;;;;;;16.33;12.30;;;;;;;;;;4962617;28;20372;-44
2022/05/05 07:30:11;;;;;;;15.40;12.47;;;;;;;;;;4961237;28;20178;-45
2022/05/05 07:32:37;;;;;;;19.33;13.80;;;;;;;;;;4962401;28;20177;-45
2022/05/05 07:35:03;;;;;;;18.60;13.60;;;;;;;;;;4962074;28;20209;-45
2022/05/05 07:37:29;;;;;;;21.83;15.63;;;;;;;;;;4961757;28;20705;-45
2022/05/05 07:39:55;;;;;;;22.87;15.23;;;;;;;;;;4962221;28;20273;-45
2022/05/05 07:42:21;;;;;;;16.60;13.33;;;;;;;;;;4965765;28;20501;-44
2022/05/05 07:44:47;;;;;;;18.27;14.57;;;;;;;;;;4964068;28;20178;-45
2022/05/05 07:47:14;;;;;;;18.13;15.07;;;;;;;;;;4963488;28;20185;-44
2022/05/05 07:49:40;;;;;;;20.37;16.83;;;;;;;;;;4963198;28;20180;-45
2022/05/05 07:52:06;;;;;;;21.17;18.27;;;;;;;;;;4965436;28;20664;-45
2022/05/05 07:54:35;;;;;;;25.80;19.30;;;;;;;;;;4959705;28;20936;-44
2022/05/05 07:57:01;;;;;;;31.87;19.77;;;;;;;;;;4959915;28;20884;-45
2022/05/05 07:59:28;;;;;;;29.87;21.87;;;;;;;;;;4963961;28;20548;-44
2022/05/05 08:01:54;;;;;;;26.87;20.73;;;;;;;;;;4961836;28;20204;-45
2022/05/05 08:04:20;;;;;;;21.27;18.70;;;;;;;;;;4960577;28;20793;-45
2022/05/05 08:06:46;;;;;;;26.70;21.20;;;;;;;;;;4964131;28;20174;-45
2022/05/05 08:09:12;;;;;;;25.67;21.50;;;;;;;;;;4966056;28;20736;-45
2022/05/05 08:11:38;;;;;;;24.13;20.43;;;;;;;;;;4961601;28;20184;-45
2022/05/05 08:14:05;;;;;;;31.27;21.57;;;;;;;;;;4961237;28;20498;-45
2022/05/05 08:16:31;;;;;;;29.47;22.63;;;;;;;;;;4967334;28;20513;-45
2022/05/05 08:18:57;;;;;;;24.23;20.00;;;;;;;;;;4968013;28;20197;-44
2022/05/05 08:21:23;;;;;;;23.30;18.90;;;;;;;;;;4964658;28;20185;-45
2022/05/05 08:28:27;;;;;;;23.60;19.00;;;;;;;;;;4962298;28;20283;-45
2022/05/05 08:29:20;;;;;;;26.57;21.90;;;;;;;;;;4967273;28;20669;-45
2022/05/05 08:31:46;;;;;;;25.43;21.10;;;;;;;;;;4965511;28;20215;-45
2022/05/05 08:34:12;;;;;;;27.13;21.67;;;;;;;;;;4963267;28;20209;-45
2022/05/05 08:36:38;;;;;;;28.07;21.80;;;;;;;;;;4963400;28;20259;-45
2022/05/05 08:39:05;;;;;;;26.63;21.17;;;;;;;;;;4963618;28;20316;-45
2022/05/05 08:41:31;;;;;;;29.33;23.27;;;;;;;;;;4963788;28;20184;-45
2022/05/05 08:43:57;;;;;;;29.40;22.00;;;;;;;;;;4962242;28;20645;-45
2022/05/05 08:46:28;;;;;;;32.80;22.57;;;;;;;;;;4965905;28;20654;-44
2022/05/05 08:49:05;;;;;;;31.60;24.83;;;;;;;;;;4967410;28;20166;-44
2022/05/05 08:51:44;;;;;;;31.67;25.03;;;;;;;;;;4965497;28;20679;-45
2022/05/05 08:54:16;;;;;;;33.60;26.90;;;;;;;;;;4965283;28;20793;-45
2022/05/05 08:56:42;;;;;;;34.77;27.97;;;;;;;;;;4967792;28;21082;-45
2022/05/05 08:59:09;;;;;;;44.00;32.13;;;;;;;;;;4966674;28;20756;-45
2022/05/05 09:01:38;;;;;;;41.53;31.57;;;;;;;;;;4961044;28;20470;-45
2022/05/05 09:04:05;;;;;;;38.13;29.67;;;;;;;;;;4963613;28;20280;-45
2022/05/05 09:06:51;;;;;;;42.70;34.07;;;;;;;;;;4963879;28;20174;-44
2022/05/05 09:09:34;;;;;;;47.40;37.77;;;;;;;;;;4964585;28;20263;-44
2022/05/05 09:12:06;;;;;;;49.07;38.50;;;;;;;;;;4962757;28;20390;-44
2022/05/05 09:14:36;;;;;;;52.40;40.03;;;;;;;;;;4966441;28;20211;-41
2022/05/05 09:17:10;;;;;;;55.70;43.57;;;;;;;;;;4962739;28;20570;-44
2022/05/05 09:19:41;;;;;;;58.27;44.80;;;;;;;;;;4962244;28;20346;-44
2022/05/05 09:22:08;;;;;;;55.90;43.23;;;;;;;;;;4967696;28;20172;-44
2022/05/05 09:24:49;;;;;;;59.40;46.80;;;;;;;;;;4967550;28;20208;-44
2022/05/05 09:27:21;;;;;;;62.33;47.20;;;;;;;;;;4962897;28;20182;-44
2022/05/05 09:29:57;;;;;;;64.07;49.70;;;;;;;;;;4963846;28;20317;-44
2022/05/05 09:32:27;;;;;;;63.60;48.40;;;;;;;;;;4962975;28;20185;-44
2022/05/05 09:35:01;;;;;;;64.63;48.83;;;;;;;;;;4968099;28;20259;-44
2022/05/05 09:37:28;;;;;;;63.43;45.53;;;;;;;;;;4963561;28;20193;-44
2022/05/05 09:39:58;;;;;;;56.73;44.30;;;;;;;;;;4963092;28;20178;-44
2022/05/05 09:42:40;;;;;;;59.30;46.10;;;;;;;;;;4965959;28;20178;-44
2022/05/05 09:45:16;;;;;;;60.07;44.20;;;;;;;;;;4964070;28;20177;-44
2022/05/05 09:47:42;;;;;;;53.07;42.13;;;;;;;;;;4962456;28;20195;-44
2022/05/05 09:50:08;;;;;;;60.43;43.03;;;;;;;;;;4964945;28;20169;-44
2022/05/05 09:58:09;;;;;;;54.87;40.33;;;;;;;;;;4963377;28;20184;-44
2022/05/05 10:00:45;;;;;;;51.57;41.37;;;;;;;;;;4961764;28;20649;-44
2022/05/05 10:05:59;;;;;;;56.93;43.60;;;;;;;;;;4965162;28;20184;-45
2022/05/05 10:08:37;;;;;;;52.47;41.90;;;;;;;;;;4963773;28;20485;-44
2022/05/05 10:11:10;;;;;;;54.07;41.67;;;;;;;;;;4965997;28;20807;-44
2022/05/05 10:13:39;;;;;;;52.83;43.00;;;;;;;;;;4966814;28;20206;-49
2022/05/05 10:16:06;;;;;;;47.97;38.57;;;;;;;;;;4963773;28;20945;-44
2022/05/05 10:18:39;;;;;;;55.03;40.97;;;;;;;;;;4959061;28;20204;-44
2022/05/05 10:21:07;;;;;;;54.03;40.90;;;;;;;;;;4966004;28;20170;-44
2022/05/05 10:23:39;;;;;;;53.90;40.87;;;;;;;;;;4963611;28;20672;-45
2022/05/05 10:26:06;;;;;;;59.43;44.30;;;;;;;;;;4964165;28;20204;-45
2022/05/05 10:28:38;;;;;;;55.03;41.50;;;;;;;;;;4967304;28;20383;-45
2022/05/05 10:31:04;;;;;;;56.17;41.77;;;;;;;;;;4966087;28;20578;-45
2022/05/05 10:33:50;;;;;;;55.27;41.50;;;;;;;;;;4961863;28;20229;-45
2022/05/05 10:36:23;;;;;;;52.63;40.20;;;;;;;;;;4960590;28;20272;-45
2022/05/05 10:38:49;;;;;;;58.90;41.57;;;;;;;;;;4965825;28;20332;-45
2022/05/05 10:41:37;;;;;;;53.33;41.50;;;;;;;;;;4964095;28;20244;-45
2022/05/05 10:44:19;;;;;;;54.67;42.93;;;;;;;;;;4961992;28;20609;-45
2022/05/05 10:46:51;;;;;;;57.77;42.67;;;;;;;;;;4966668;28;21077;-45
2022/05/05 10:49:37;;;;;;;60.97;43.43;;;;;;;;;;4961024;28;20297;-44
2022/05/05 10:52:12;;;;;;;57.23;43.20;;;;;;;;;;4956630;28;20200;-45
2022/05/05 10:54:38;;;;;;;59.30;44.87;;;;;;;;;;4965659;28;20232;-44
2022/05/05 10:57:23;;;;;;;57.33;45.17;;;;;;;;;;4961527;28;20177;-45
2022/05/05 11:00:08;;;;;;;56.77;43.10;;;;;;;;;;4964469;28;20177;-45
2022/05/05 11:02:34;;;;;;;58.27;42.47;;;;;;;;;;4964193;28;21167;-45
2022/05/05 11:05:19;;;;;;;52.43;40.80;;;;;;;;;;4962425;28;20868;-44
2022/05/05 11:07:49;;;;;;;55.73;41.97;;;;;;;;;;4966352;28;20259;-44
2022/05/05 11:10:47;;;;;;;58.93;44.70;;;;;;;;;;4960601;28;20185;-45
2022/05/05 11:13:32;;;;;;;55.20;40.40;;;;;;;;;;4940233;28;20466;-45
2022/05/05 11:22:07;;;;;;;55.63;41.13;;;;;;;;;;4963231;28;20588;-45
2022/05/05 11:24:33;;;;;;;58.80;43.20;;;;;;;;;;4966098;28;20263;-45
2022/05/05 11:27:00;;;;;;;58.73;43.40;;;;;;;;;;4962532;28;20574;-45
2022/05/05 11:29:32;;;;;;;58.70;44.00;;;;;;;;;;4961128;28;20546;-45
2022/05/05 11:32:05;;;;;;;56.67;42.47;;;;;;;;;;4962609;28;20181;-45
2022/05/05 11:34:36;;;;;;;56.30;41.00;;;;;;;;;;4963139;28;20210;-45
2022/05/05 11:37:02;;;;;;;54.33;40.20;;;;;;;;;;4963510;28;20633;-45
2022/05/05 11:39:29;;;;;;;56.83;40.37;;;;;;;;;;4958095;28;20197;-44
2022/05/05 11:41:59;;;;;;;54.20;41.07;;;;;;;;;;4960979;28;20741;-44
2022/05/05 11:44:26;;;;;;;47.03;36.63;;;;;;;;;;4965884;28;20642;-45
2022/05/05 11:46:53;;;;;;;52.40;39.03;;;;;;;;;;4961446;28;20189;-45
2022/05/05 11:49:19;;;;;;;49.93;37.43;;;;;;;;;;4961921;28;20551;-44
2022/05/05 11:51:46;;;;;;;53.37;37.93;;;;;;;;;;4965637;28;20468;-45
2022/05/05 11:54:14;;;;;;;46.37;36.33;;;;;;;;;;4963008;28;20318;-44
2022/05/05 11:56:49;;;;;;;45.83;36.27;;;;;;;;;;4959069;28;20413;-45
2022/05/05 12:02:11;;;;;;;45.00;34.00;;;;;;;;;;4962374;28;20471;-44
2022/05/05 12:04:41;;;;;;;43.67;33.27;;;;;;;;;;4963042;28;20717;-45
2022/05/05 12:07:09;;;;;;;41.57;33.17;;;;;;;;;;4965097;28;20644;-45
2022/05/05 12:09:36;;;;;;;40.17;31.73;;;;;;;;;;4961190;28;20793;-45
2022/05/05 12:12:12;;;;;;;44.93;32.33;;;;;;;;;;4959860;28;20254;-45
2022/05/05 12:14:47;;;;;;;42.40;31.30;;;;;;;;;;4966427;28;20200;-45
2022/05/05 12:17:16;;;;;;;39.93;29.80;;;;;;;;;;4963070;28;20208;-45
2022/05/05 12:19:50;;;;;;;41.50;33.13;;;;;;;;;;4964259;28;20256;-45
2022/05/05 12:22:22;;;;;;;38.43;31.20;;;;;;;;;;4964416;28;20506;-45
2022/05/05 12:24:48;;;;;;;37.27;29.77;;;;;;;;;;4965417;28;20216;-45
2022/05/05 12:27:15;;;;;;;38.47;29.90;;;;;;;;;;4965872;28;20174;-45
2022/05/05 12:29:42;;;;;;;36.43;29.33;;;;;;;;;;4964402;28;20322;-45
2022/05/05 12:32:26;;;;;;;39.20;30.17;;;;;;;;;;4965407;28;21115;-45
2022/05/05 12:35:00;;;;;;;40.50;30.77;;;;;;;;;;4967763;28;20200;-45
2022/05/05 12:37:27;;;;;;;37.20;28.83;;;;;;;;;;4965391;28;20260;-45
2022/05/05 12:39:53;;;;;;;35.57;29.20;;;;;;;;;;4963303;28;20173;-45
2022/05/05 12:42:21;;;;;;;33.47;27.80;;;;;;;;;;4966353;28;20182;-45
2022/05/05 12:44:49;;;;;;;34.47;27.30;;;;;;;;;;4968484;28;20190;-45
2022/05/05 12:47:21;;;;;;;37.03;28.27;;;;;;;;;;4964539;28;20459;-45
2022/05/05 12:49:47;;;;;;;34.60;28.03;;;;;;;;;;4964526;28;20173;-45
2022/05/05 13:00:28;;;;;;;35.20;27.77;;;;;;;;;;4966364;28;20572;-43
2022/05/05 13:02:54;;;;;;;34.70;27.83;;;;;;;;;;4964454;28;20170;-44
2022/05/05 13:05:20;;;;;;;33.10;26.70;;;;;;;;;;4965308;28;20212;-43
2022/05/05 13:07:46;;;;;;;38.47;27.20;;;;;;;;;;4963304;28;20577;-44
2022/05/05 13:10:12;;;;;;;35.53;27.10;;;;;;;;;;4963843;28;20662;-44
2022/05/05 13:12:38;;;;;;;35.40;28.13;;;;;;;;;;4967964;28;20265;-44
2022/05/05 13:15:04;;;;;;;35.23;28.37;;;;;;;;;;4963190;28;20357;-44
2022/05/05 13:17:30;;;;;;;34.83;27.33;;;;;;;;;;4962864;28;20173;-43
2022/05/05 13:19:57;;;;;;;33.63;26.13;;;;;;;;;;4965640;28;20182;-43
2022/05/05 13:22:23;;;;;;;33.00;26.83;;;;;;;;;;4967745;28;20483;-42
2022/05/05 13:24:49;;;;;;;34.20;26.43;;;;;;;;;;4964566;28;20586;-44
2022/05/05 13:27:15;;;;;;;35.63;24.57;;;;;;;;;;4964490;28;20779;-44
2022/05/05 13:29:41;;;;;;;33.13;25.10;;;;;;;;;;4965984;28;20710;-44
2022/05/05 13:32:08;;;;;;;33.93;25.87;;;;;;;;;;4966989;28;20761;-44
2022/05/05 13:34:34;;;;;;;34.13;24.53;;;;;;;;;;4959363;28;20259;-44
2022/05/05 13:37:00;;;;;;;31.63;24.33;;;;;;;;;;4960592;28;20390;-44
2022/05/05 13:39:27;;;;;;;30.73;24.90;;;;;;;;;;4966266;28;20181;-44
2022/05/05 13:41:53;;;;;;;36.10;25.37;;;;;;;;;;4963411;28;20174;-44
2022/05/05 13:44:20;;;;;;;32.27;24.77;;;;;;;;;;4960850;28;20587;-43
2022/05/05 13:46:46;;;;;;;33.20;25.47;;;;;;;;;;4961056;28;20253;-44
2022/05/05 13:49:12;;;;;;;29.77;23.13;;;;;;;;;;4960241;28;20189;-44
2022/05/05 13:51:38;;;;;;;37.00;24.53;;;;;;;;;;4962512;28;20589;-44
2022/05/05 13:54:05;;;;;;;32.07;24.03;;;;;;;;;;4965121;28;20477;-44
2022/05/05 13:56:31;;;;;;;33.23;21.73;;;;;;;;;;4964306;28;20679;-44
2022/05/05 13:58:57;;;;;;;28.10;20.43;;;;;;;;;;4962102;28;20376;-44
2022/05/05 14:01:23;;;;;;;29.03;20.57;;;;;;;;;;4965281;28;20882;-44
2022/05/05 14:03:50;;;;;;;26.03;19.30;;;;;;;;;;4967613;28;20216;-44
2022/05/05 14:06:16;;;;;;;25.43;19.07;;;;;;;;;;4965016;28;20492;-44
2022/05/05 14:14:12;;;;;;;20.77;16.60;;;;;;;;;;4960612;28;20765;-44
2022/05/05 14:16:39;;;;;;;30.00;18.00;;;;;;;;;;4961423;28;20697;-44
2022/05/05 14:19:05;;;;;;;25.37;18.17;;;;;;;;;;4960416;28;20208;-44
2022/05/05 14:21:31;;;;;;;24.43;17.77;;;;;;;;;;4965775;28;20464;-44
2022/05/05 14:23:57;;;;;;;25.63;17.80;;;;;;;;;;4964400;28;21134;-44
2022/05/05 14:26:23;;;;;;;21.67;17.33;;;;;;;;;;4961884;28;20182;-43
2022/05/05 14:28:49;;;;;;;22.57;17.83;;;;;;;;;;4967637;28;20215;-44
2022/05/05 14:31:15;;;;;;;24.50;17.43;;;;;;;;;;4965338;28;20181;-44
2022/05/05 14:33:41;;;;;;;23.67;17.40;;;;;;;;;;4964552;28;20315;-44
2022/05/05 14:36:07;;;;;;;21.70;17.27;;;;;;;;;;4965230;28;20705;-44
2022/05/05 14:38:33;;;;;;;27.30;19.20;;;;;;;;;;4965156;28;20189;-44
2022/05/05 14:41:00;;;;;;;21.50;17.80;;;;;;;;;;4964923;28;20197;-44
2022/05/05 14:43:26;;;;;;;23.40;18.03;;;;;;;;;;4964976;28;20611;-44
2022/05/05 14:45:52;;;;;;;20.63;15.50;;;;;;;;;;4961975;28;20205;-43
2022/05/05 14:48:18;;;;;;;19.13;15.17;;;;;;;;;;4962788;28;20186;-44
2022/05/05 14:50:44;;;;;;;16.93;13.97;;;;;;;;;;4967122;28;20201;-45
2022/05/05 14:53:10;;;;;;;15.57;12.33;;;;;;;;;;4961070;28;20181;-44
2022/05/05 14:55:36;;;;;;;17.43;13.70;;;;;;;;;;4962372;28;21238;-43
2022/05/05 14:58:03;;;;;;;13.77;9.80;;;;;;;;;;4964994;28;20197;-44
2022/05/05 15:00:29;;;;;;;7.50;4.30;;;;;;;;;;4963277;28;20174;-43
2022/05/05 15:02:55;;;;;;;7.83;4.23;;;;;;;;;;4958899;28;20174;-44
2022/05/05 15:05:22;;;;;;;4.00;3.47;;;;;;;;;;4961175;28;20269;-44
2022/05/05 15:07:48;;;;;;;4.43;3.10;;;;;;;;;;4960943;28;20170;-44
2022/05/05 15:10:14;;;;;;;4.37;3.07;;;;;;;;;;4959598;28;20181;-44
2022/05/05 15:12:40;;;;;;;5.67;3.30;;;;;;;;;;4956980;28;20185;-43
2022/05/05 15:15:07;;;;;;;6.23;3.30;;;;;;;;;;4961866;28;20200;-43
2022/05/05 15:17:33;;;;;;;5.27;2.90;;;;;;;;;;4960901;28;20177;-44